createdAt,value
2022-12-14T00:00:41.860Z,8.15
2022-12-14T00:03:15.638Z,11.68
2022-12-14T00:05:48.333Z,7.93
2022-12-14T00:08:21.370Z,7.57
2022-12-14T00:10:53.749Z,12.35
2022-12-14T00:13:26.165Z,10.48
2022-12-14T00:15:58.655Z,13.10
2022-12-14T00:18:31.213Z,10.43
2022-12-14T00:21:05.604Z,9.35
2022-12-14T00:23:39.599Z,7.05
2022-12-14T00:26:14.784Z,6.75
2022-12-14T00:28:48.872Z,7.75
2022-12-14T00:31:22.799Z,8.38
2022-12-14T00:33:55.261Z,6.75
2022-12-14T00:36:27.735Z,7.97
2022-12-14T00:39:00.824Z,6.38
2022-12-14T00:41:33.288Z,7.15
2022-12-14T00:44:06.003Z,7.07
2022-12-14T00:46:38.412Z,8.02
2022-12-14T00:49:11.079Z,6.55
2022-12-14T00:51:43.484Z,7.85
2022-12-14T00:54:16.700Z,8.32
2022-12-14T00:56:49.064Z,8.35
2022-12-14T00:59:25.748Z,7.63
2022-12-14T01:02:02.433Z,7.07
2022-12-14T01:04:35.402Z,10.27
2022-12-14T01:07:07.757Z,8.65
2022-12-14T01:09:40.845Z,8.45
2022-12-14T01:12:13.290Z,9.48
2022-12-14T01:14:45.975Z,7.75
2022-12-14T01:17:18.704Z,9.73
2022-12-14T01:19:51.244Z,8.70
2022-12-14T01:22:24.135Z,8.63
2022-12-14T01:24:57.198Z,9.65
2022-12-14T01:27:29.670Z,7.50
2022-12-14T01:30:03.120Z,10.65
2022-12-14T01:32:36.213Z,6.88
2022-12-14T01:35:09.079Z,9.27
2022-12-14T01:37:41.493Z,6.70
2022-12-14T01:40:14.561Z,10.18
2022-12-14T01:42:46.959Z,8.38
2022-12-14T01:45:21.406Z,8.57
2022-12-14T01:47:57.271Z,8.32
2022-12-14T01:50:34.619Z,9.82
2022-12-14T01:53:11.994Z,9.52
2022-12-14T01:55:49.271Z,8.63
2022-12-14T01:58:23.914Z,7.40
2022-12-14T02:01:00.020Z,9.13
2022-12-14T02:03:35.004Z,6.95
2022-12-14T02:06:10.578Z,8.82
2022-12-14T02:08:45.438Z,9.00
2022-12-14T02:11:27.720Z,6.65
2022-12-14T02:14:00.285Z,9.50
2022-12-14T02:16:32.820Z,8.85
2022-12-14T02:19:05.613Z,8.20
2022-12-14T02:21:54.376Z,8.73
2022-12-14T02:24:52.679Z,8.10
2022-12-14T02:27:50.501Z,8.02
2022-12-14T02:30:25.896Z,8.50
2022-12-14T02:33:14.207Z,8.27
2022-12-14T02:35:51.431Z,9.75
2022-12-14T02:38:38.022Z,10.27
2022-12-14T02:41:16.708Z,10.93
2022-12-14T02:43:59.648Z,7.78
2022-12-14T02:46:39.148Z,7.82
2022-12-14T02:49:23.508Z,7.40
2022-12-14T02:52:02.463Z,6.45
2022-12-14T02:54:42.191Z,5.85
2022-12-14T02:59:54.094Z,3.70
2022-12-14T03:02:28.540Z,4.57
2022-12-14T03:05:04.227Z,3.33
2022-12-14T03:07:42.470Z,3.70
2022-12-14T03:10:21.923Z,4.78
2022-12-14T03:12:57.721Z,4.07
2022-12-14T03:15:31.259Z,4.35
2022-12-14T03:18:06.811Z,3.75
2022-12-14T03:20:42.109Z,4.13
2022-12-14T03:23:21.451Z,4.18
2022-12-14T03:26:01.338Z,3.95
2022-12-14T03:28:42.347Z,5.35
2022-12-14T03:31:20.224Z,4.55
2022-12-14T03:33:57.281Z,5.53
2022-12-14T03:36:35.301Z,4.80
2022-12-14T03:39:13.303Z,5.80
2022-12-14T03:41:55.591Z,4.90
2022-12-14T03:44:39.094Z,4.53
2022-12-14T03:47:28.716Z,4.55
2022-12-14T03:50:08.466Z,4.63
2022-12-14T03:55:24.589Z,2.33
2022-12-14T03:58:27.451Z,3.67
2022-12-14T04:01:07.110Z,3.50
2022-12-14T04:06:29.909Z,5.00
2022-12-14T04:09:17.493Z,3.85
2022-12-14T04:12:14.219Z,3.95
2022-12-14T04:15:21.750Z,4.03
2022-12-14T04:18:16.615Z,5.25
2022-12-14T04:20:53.093Z,3.72
2022-12-14T04:23:50.021Z,5.93
2022-12-14T04:26:28.295Z,4.75
2022-12-14T04:30:11.860Z,4.65
2022-12-14T04:32:48.503Z,5.43
2022-12-14T04:35:26.131Z,5.95
2022-12-14T04:38:04.749Z,4.97
2022-12-14T04:40:43.437Z,6.28
2022-12-14T04:43:19.876Z,5.70
2022-12-14T04:45:58.520Z,4.88
2022-12-14T04:48:36.977Z,4.95
2022-12-14T04:51:14.370Z,4.15
2022-12-14T04:53:53.513Z,5.38
2022-12-14T04:56:33.355Z,3.65
2022-12-14T04:59:06.528Z,2.85
2022-12-14T05:01:51.590Z,4.90
2022-12-14T05:04:41.077Z,4.30
2022-12-14T05:07:23.608Z,2.92
2022-12-14T05:10:00.315Z,3.67
2022-12-14T05:12:39.288Z,5.53
2022-12-14T05:15:14.832Z,4.75
2022-12-14T05:17:47.497Z,4.47
2022-12-14T05:20:21.951Z,4.53
2022-12-14T05:22:54.338Z,5.57
2022-12-14T05:25:26.824Z,6.25
2022-12-14T05:28:00.015Z,15.13
2022-12-14T05:30:32.423Z,4.40
2022-12-14T05:33:05.143Z,5.20
2022-12-14T05:35:37.531Z,3.85
2022-12-14T05:38:09.903Z,4.38
2022-12-14T05:40:42.334Z,4.53
2022-12-14T05:43:15.393Z,4.05
2022-12-14T05:45:47.992Z,5.88
2022-12-14T05:48:20.403Z,4.15
2022-12-14T05:50:52.827Z,8.48
2022-12-14T05:53:25.450Z,4.78
2022-12-14T05:55:58.033Z,5.63
2022-12-14T05:58:31.113Z,5.97
2022-12-14T06:01:05.317Z,3.65
2022-12-14T06:03:38.185Z,5.95
2022-12-14T06:06:12.190Z,3.60
2022-12-14T06:08:45.868Z,4.72
2022-12-14T06:11:20.866Z,3.53
2022-12-14T06:13:54.033Z,4.07
2022-12-14T06:16:27.182Z,4.15
2022-12-14T06:19:01.734Z,3.85
2022-12-14T06:21:36.529Z,3.42
2022-12-14T06:24:10.609Z,3.25
2022-12-14T06:26:43.199Z,3.38
2022-12-14T06:29:18.166Z,4.13
2022-12-14T06:31:50.576Z,3.97
2022-12-14T06:34:28.346Z,3.72
2022-12-14T06:37:01.078Z,4.30
2022-12-14T06:39:33.474Z,3.10
2022-12-14T06:42:06.217Z,4.05
2022-12-14T06:44:39.207Z,4.32
2022-12-14T06:47:11.607Z,2.67
2022-12-14T06:49:44.062Z,3.63
2022-12-14T06:52:16.426Z,3.58
2022-12-14T06:54:49.001Z,3.42
2022-12-14T06:57:21.512Z,3.45
2022-12-14T06:59:54.590Z,4.55
2022-12-14T07:02:27.207Z,4.13
2022-12-14T07:04:59.599Z,4.88
2022-12-14T07:07:32.368Z,3.53
2022-12-14T07:10:05.631Z,5.43
2022-12-14T07:12:38.473Z,7.55
2022-12-14T07:15:11.745Z,8.63
2022-12-14T07:17:44.084Z,4.47
2022-12-14T07:20:16.641Z,4.97
2022-12-14T07:22:49.351Z,4.68
2022-12-14T07:25:21.783Z,4.03
2022-12-14T07:27:54.209Z,5.20
2022-12-14T07:30:27.378Z,4.15
2022-12-14T07:32:59.713Z,3.90
2022-12-14T07:35:32.203Z,4.65
2022-12-14T07:38:04.569Z,3.85
2022-12-14T07:40:36.957Z,4.10
2022-12-14T07:43:09.861Z,3.40
2022-12-14T07:45:42.919Z,3.25
2022-12-14T07:48:15.235Z,7.32
2022-12-14T07:50:47.627Z,6.25
2022-12-14T07:53:20.014Z,4.43
2022-12-14T07:55:52.414Z,3.90
2022-12-14T07:58:24.808Z,3.67
2022-12-14T08:01:07.599Z,4.18
2022-12-14T08:03:40.695Z,3.90
2022-12-14T08:06:14.614Z,6.68
2022-12-14T08:08:46.992Z,5.15
2022-12-14T08:11:22.173Z,6.13
2022-12-14T08:13:54.830Z,5.47
2022-12-14T08:16:28.333Z,7.50
2022-12-14T08:19:01.375Z,6.30
2022-12-14T08:21:33.739Z,6.85
2022-12-14T08:24:06.798Z,6.10
2022-12-14T08:26:39.332Z,6.15
2022-12-14T08:29:13.995Z,6.00
2022-12-14T08:31:47.477Z,5.47
2022-12-14T08:34:22.070Z,5.65
2022-12-14T08:36:54.809Z,4.07
2022-12-14T08:39:27.178Z,6.72
2022-12-14T08:41:59.655Z,7.45
2022-12-14T08:44:31.999Z,5.75
2022-12-14T08:47:05.181Z,5.97
2022-12-14T08:49:37.558Z,6.47
2022-12-14T08:52:10.347Z,9.00
2022-12-14T08:54:42.790Z,7.07
2022-12-14T08:57:15.216Z,7.38
2022-12-14T09:00:03.474Z,9.65
2022-12-14T09:02:37.568Z,8.15
2022-12-14T09:05:10.324Z,7.88
2022-12-14T09:07:42.634Z,7.63
2022-12-14T09:10:15.206Z,7.07
2022-12-14T09:12:47.809Z,8.68
2022-12-14T09:15:20.213Z,7.85
2022-12-14T09:17:53.234Z,6.78
2022-12-14T09:20:25.655Z,6.43
2022-12-14T09:22:58.306Z,7.65
2022-12-14T09:25:30.760Z,6.05
2022-12-14T09:28:03.298Z,5.63
2022-12-14T09:30:35.721Z,7.63
2022-12-14T09:33:09.024Z,7.90
2022-12-14T09:35:41.442Z,7.35
2022-12-14T09:38:14.267Z,7.47
2022-12-14T09:40:55.131Z,7.82
2022-12-14T09:43:40.154Z,7.95
2022-12-14T09:46:23.899Z,7.50
2022-12-14T09:48:57.914Z,7.78
2022-12-14T09:51:34.369Z,7.30
2022-12-14T09:54:13.568Z,8.38
2022-12-14T09:56:46.138Z,7.22
2022-12-14T09:59:20.569Z,8.95
2022-12-14T10:02:30.507Z,9.15
2022-12-14T10:05:24.164Z,7.47
2022-12-14T10:08:05.765Z,6.53
2022-12-14T10:10:50.235Z,9.77
2022-12-14T10:13:36.386Z,9.23
2022-12-14T10:16:20.723Z,6.45
2022-12-14T10:19:08.651Z,8.55
2022-12-14T10:21:48.180Z,8.35
2022-12-14T10:24:24.833Z,9.05
2022-12-14T10:26:57.787Z,9.55
2022-12-14T10:29:34.612Z,16.65
2022-12-14T10:32:19.099Z,9.43
2022-12-14T10:34:51.713Z,9.98
2022-12-14T10:37:29.687Z,10.23
2022-12-14T10:40:27.531Z,7.30
2022-12-14T10:43:20.853Z,8.35
2022-12-14T10:46:08.562Z,10.20
2022-12-14T10:48:53.982Z,6.75
2022-12-14T10:51:34.015Z,8.05
2022-12-14T10:54:20.137Z,8.10
2022-12-14T10:56:52.688Z,7.63
2022-12-14T10:59:36.703Z,6.93
2022-12-14T11:02:16.637Z,7.78
2022-12-14T11:04:52.062Z,6.72
2022-12-14T11:07:36.325Z,8.90
2022-12-14T11:10:16.847Z,8.10
2022-12-14T11:13:00.539Z,7.38
2022-12-14T11:15:35.086Z,6.97
2022-12-14T11:18:30.053Z,6.43
2022-12-14T11:21:05.140Z,7.15
2022-12-14T11:23:39.237Z,7.97
2022-12-14T11:26:15.677Z,7.38
2022-12-14T11:28:50.613Z,7.13
2022-12-14T11:31:28.450Z,7.82
2022-12-14T11:34:02.929Z,8.25
2022-12-14T11:36:37.126Z,7.82
2022-12-14T11:39:21.018Z,9.05
2022-12-14T11:42:02.865Z,7.90
2022-12-14T11:44:36.874Z,10.45
2022-12-14T11:47:13.548Z,8.77
2022-12-14T11:49:47.743Z,14.02
2022-12-14T11:52:22.325Z,15.73
2022-12-14T11:55:11.902Z,8.05
2022-12-14T11:57:51.669Z,7.32
2022-12-14T12:00:26.529Z,8.10
2022-12-14T12:03:02.557Z,7.68
2022-12-14T12:05:40.657Z,8.68
2022-12-14T12:08:23.119Z,9.45
2022-12-14T12:11:01.957Z,7.97
2022-12-14T12:13:39.726Z,5.63
2022-12-14T12:16:15.565Z,6.70
2022-12-14T12:18:50.679Z,7.20
2022-12-14T12:21:27.430Z,8.18
2022-12-14T12:24:04.702Z,7.25
2022-12-14T12:26:40.104Z,7.38
2022-12-14T12:29:17.317Z,7.88
2022-12-14T12:31:54.314Z,7.18
2022-12-14T12:34:30.764Z,7.45
2022-12-14T12:37:26.815Z,5.68
2022-12-14T12:40:10.214Z,5.72
2022-12-14T12:42:49.762Z,7.13
2022-12-14T12:45:27.073Z,5.60
2022-12-14T12:48:06.809Z,5.03
2022-12-14T12:53:18.790Z,4.60
2022-12-14T12:55:54.812Z,7.20
2022-12-14T12:58:31.658Z,5.63
2022-12-14T13:01:17.668Z,6.85
2022-12-14T13:03:52.892Z,6.85
2022-12-14T13:06:29.898Z,6.30
2022-12-14T13:09:12.383Z,6.25
2022-12-14T13:11:45.773Z,7.07
2022-12-14T13:14:28.072Z,7.18
2022-12-14T13:17:05.563Z,6.90
2022-12-14T13:19:54.246Z,8.23
2022-12-14T13:22:29.689Z,6.93
2022-12-14T13:25:07.586Z,8.20
2022-12-14T13:28:14.662Z,9.23
2022-12-14T13:30:58.368Z,7.32
2022-12-14T13:33:59.678Z,7.78
2022-12-14T13:37:04.550Z,8.75
2022-12-14T13:40:02.495Z,8.63
2022-12-14T13:42:45.759Z,7.35
2022-12-14T13:45:20.876Z,9.80
2022-12-14T13:47:55.836Z,8.07
2022-12-14T13:50:36.543Z,8.93
2022-12-14T13:53:18.186Z,8.90
2022-12-14T13:55:52.577Z,9.05
2022-12-14T13:58:33.968Z,8.85
2022-12-14T14:01:07.532Z,8.80
2022-12-14T14:03:51.252Z,8.00
2022-12-14T14:06:36.132Z,6.72
2022-12-14T14:09:50.214Z,6.82
2022-12-14T14:12:43.197Z,7.40
2022-12-14T14:15:32.798Z,6.85
2022-12-14T14:18:13.614Z,5.13
2022-12-14T14:20:47.898Z,6.70
2022-12-14T14:23:37.661Z,7.43
2022-12-14T14:26:24.578Z,6.63
2022-12-14T14:29:19.470Z,4.45
2022-12-14T14:31:57.396Z,5.25
2022-12-14T14:34:45.387Z,6.40
2022-12-14T14:37:32.455Z,4.30
2022-12-14T14:40:44.263Z,5.18
2022-12-14T14:43:27.352Z,7.13
2022-12-14T14:46:03.047Z,5.75
2022-12-14T14:48:40.483Z,7.10
2022-12-14T14:51:19.563Z,6.30
2022-12-14T14:55:06.539Z,3.72
2022-12-14T14:57:35.016Z,6.38
2022-12-14T15:00:11.559Z,5.70
2022-12-14T15:02:45.020Z,5.60
2022-12-14T15:08:18.571Z,5.03
2022-12-14T15:10:51.590Z,4.75
2022-12-14T15:13:28.087Z,5.15
2022-12-14T15:16:00.981Z,6.60
2022-12-14T15:18:34.105Z,5.28
2022-12-14T15:21:11.318Z,7.18
2022-12-14T15:23:49.603Z,9.35
2022-12-14T15:26:26.700Z,9.65
2022-12-14T15:29:03.831Z,6.20
2022-12-14T15:31:41.019Z,9.50
2022-12-14T15:34:18.235Z,6.90
2022-12-14T15:36:51.414Z,7.07
2022-12-14T15:39:39.875Z,7.68
2022-12-14T15:42:15.118Z,5.43
2022-12-14T15:44:51.986Z,6.90
2022-12-14T15:47:27.183Z,6.82
2022-12-14T15:50:23.294Z,7.10
2022-12-14T15:52:58.959Z,6.78
2022-12-14T15:55:34.884Z,6.25
2022-12-14T15:58:10.279Z,5.97
2022-12-14T16:00:46.238Z,6.85
2022-12-14T16:03:27.555Z,9.88
2022-12-14T16:06:01.335Z,7.85
2022-12-14T16:08:36.604Z,11.10
2022-12-14T16:11:16.545Z,10.65
2022-12-14T16:13:49.702Z,13.38
2022-12-14T16:16:22.884Z,9.15
2022-12-14T16:19:08.632Z,8.35
2022-12-14T16:22:03.891Z,6.78
2022-12-14T16:24:37.834Z,5.43
2022-12-14T16:27:18.099Z,7.13
2022-12-14T16:30:15.132Z,7.40
2022-12-14T16:32:50.707Z,7.38
2022-12-14T16:35:24.539Z,9.40
2022-12-14T16:38:06.057Z,8.43
2022-12-14T16:40:41.362Z,8.52
2022-12-14T16:43:30.107Z,8.77
2022-12-14T16:46:16.157Z,7.38
2022-12-14T16:49:18.766Z,9.15
2022-12-14T16:52:07.327Z,8.32
2022-12-14T16:54:40.809Z,8.00
2022-12-14T16:57:20.032Z,7.63
2022-12-14T16:59:57.469Z,7.57
2022-12-14T17:02:32.771Z,9.98
2022-12-14T17:05:13.855Z,8.27
2022-12-14T17:07:46.237Z,5.97
2022-12-14T17:10:21.495Z,7.47
2022-12-14T17:12:56.921Z,8.80
2022-12-14T17:15:32.960Z,7.60
2022-12-14T17:18:07.529Z,9.68
2022-12-14T17:20:40.827Z,8.07
2022-12-14T17:23:17.273Z,8.45
2022-12-14T17:25:49.882Z,6.85
2022-12-14T17:28:26.359Z,6.68
2022-12-14T17:31:01.074Z,8.27
2022-12-14T17:33:33.815Z,6.50
2022-12-14T17:36:07.721Z,12.98
2022-12-14T17:38:40.638Z,6.47
2022-12-14T17:41:17.773Z,7.25
2022-12-14T17:43:56.539Z,6.97
2022-12-14T17:46:29.388Z,8.95
2022-12-14T17:49:06.510Z,8.65
2022-12-14T17:51:41.523Z,7.35
2022-12-14T17:54:16.224Z,7.40
2022-12-14T17:56:48.517Z,5.50
2022-12-14T17:59:20.909Z,6.22
2022-12-14T18:01:53.348Z,7.63
2022-12-14T18:04:25.778Z,8.15
2022-12-14T18:06:58.725Z,6.90
2022-12-14T18:09:31.087Z,6.95
2022-12-14T18:12:25.990Z,8.10
2022-12-14T18:14:58.399Z,9.70
2022-12-14T18:17:30.854Z,7.68
2022-12-14T18:20:03.568Z,7.32
2022-12-14T18:22:36.593Z,6.32
2022-12-14T18:25:25.337Z,7.70
2022-12-14T18:27:58.198Z,6.95
2022-12-14T18:30:38.838Z,9.23
2022-12-14T18:33:16.140Z,7.65
2022-12-14T18:35:49.466Z,8.40
2022-12-14T18:38:22.833Z,10.45
2022-12-14T18:40:57.749Z,7.47
2022-12-14T18:43:31.475Z,8.70
2022-12-14T18:46:05.815Z,8.80
2022-12-14T18:48:38.759Z,7.57
2022-12-14T18:51:13.600Z,7.07
2022-12-14T18:53:46.677Z,7.60
2022-12-14T18:56:21.378Z,7.40
2022-12-14T18:58:53.725Z,7.43
2022-12-14T19:01:26.220Z,6.85
2022-12-14T19:03:58.646Z,7.32
2022-12-14T19:06:46.534Z,7.22
2022-12-14T19:09:19.816Z,7.82
2022-12-14T19:11:52.226Z,7.13
2022-12-14T19:14:24.658Z,6.47
2022-12-14T19:16:56.995Z,8.10
2022-12-14T19:19:36.928Z,6.07
2022-12-14T19:22:13.342Z,8.05
2022-12-14T19:24:52.023Z,7.53
2022-12-14T19:28:00.944Z,5.20
2022-12-14T19:30:22.106Z,10.15
2022-12-14T19:32:57.795Z,8.35
2022-12-14T19:35:31.154Z,7.57
2022-12-14T19:38:04.135Z,8.07
2022-12-14T19:40:37.210Z,7.93
2022-12-14T19:43:09.645Z,6.72
2022-12-14T19:45:42.040Z,7.63
2022-12-14T19:48:14.731Z,8.77
2022-12-14T19:50:49.394Z,5.95
2022-12-14T19:53:24.100Z,8.02
2022-12-14T19:55:57.311Z,7.20
2022-12-14T19:58:29.875Z,7.20
2022-12-14T20:01:06.764Z,6.28
2022-12-14T20:03:39.357Z,7.13
2022-12-14T20:06:11.968Z,10.30
2022-12-14T20:08:45.184Z,6.28
2022-12-14T20:11:23.421Z,9.07
2022-12-14T20:14:02.796Z,9.60
2022-12-14T20:16:36.020Z,7.07
2022-12-14T20:19:08.383Z,7.80
2022-12-14T20:21:40.866Z,8.20
2022-12-14T20:24:13.922Z,8.20
2022-12-14T20:26:49.372Z,5.78
2022-12-14T20:29:22.253Z,6.55
2022-12-14T20:31:54.802Z,6.72
2022-12-14T20:34:28.342Z,8.40
2022-12-14T20:37:00.768Z,7.10
2022-12-14T20:39:33.154Z,8.65
2022-12-14T20:42:06.285Z,8.15
2022-12-14T20:44:38.763Z,6.80
2022-12-14T20:47:11.247Z,7.15
2022-12-14T20:49:43.684Z,5.38
2022-12-14T20:52:16.284Z,7.00
2022-12-14T20:54:48.963Z,6.20
2022-12-14T20:57:22.095Z,6.55
2022-12-14T20:59:54.441Z,6.13
2022-12-14T21:02:26.929Z,5.63
2022-12-14T21:04:59.315Z,5.47
2022-12-14T21:07:32.775Z,6.18
2022-12-14T21:10:06.069Z,4.43
2022-12-14T21:12:39.147Z,5.43
2022-12-14T21:15:11.514Z,4.63
2022-12-14T21:17:44.080Z,5.20
2022-12-14T21:20:16.642Z,6.20
2022-12-14T21:22:48.992Z,5.95
2022-12-14T21:25:21.308Z,5.60
2022-12-14T21:27:54.313Z,6.30
2022-12-14T21:30:26.654Z,6.35
2022-12-14T21:32:59.023Z,6.13
2022-12-14T21:35:31.386Z,6.35
2022-12-14T21:38:03.728Z,5.95
2022-12-14T21:40:54.343Z,4.72
2022-12-14T21:43:27.700Z,5.20
2022-12-14T21:46:00.433Z,5.95
2022-12-14T21:48:34.405Z,5.68
2022-12-14T21:51:07.817Z,6.03
2022-12-14T21:53:57.758Z,5.93
2022-12-14T21:56:50.140Z,5.22
2022-12-14T21:59:25.408Z,6.32
2022-12-14T22:01:59.765Z,6.65
2022-12-14T22:04:39.361Z,5.47
2022-12-14T22:07:13.562Z,6.10
2022-12-14T22:09:49.940Z,4.75
2022-12-14T22:12:22.517Z,4.15
2022-12-14T22:14:55.580Z,4.07
2022-12-14T22:17:27.869Z,3.58
2022-12-14T22:20:00.250Z,5.55
2022-12-14T22:22:33.376Z,3.97
2022-12-14T22:25:06.345Z,5.10
2022-12-14T22:27:38.651Z,4.18
2022-12-14T22:30:13.213Z,5.93
2022-12-14T22:32:45.634Z,6.00
2022-12-14T22:35:17.994Z,4.28
2022-12-14T22:37:50.338Z,7.70
2022-12-14T22:40:22.715Z,6.38
2022-12-14T22:42:55.095Z,4.88
2022-12-14T22:45:28.061Z,4.95
2022-12-14T22:48:00.422Z,4.85
2022-12-14T22:50:32.773Z,4.53
2022-12-14T22:53:05.109Z,5.10
2022-12-14T22:55:39.017Z,7.68
2022-12-14T22:58:12.379Z,5.95
2022-12-14T23:00:45.525Z,5.93
2022-12-14T23:03:17.981Z,5.15
2022-12-14T23:05:50.820Z,5.95
2022-12-14T23:08:23.194Z,5.45
2022-12-14T23:11:13.625Z,15.30
2022-12-14T23:14:04.081Z,17.35
2022-12-14T23:16:55.569Z,11.40
2022-12-14T23:19:45.986Z,17.52
2022-12-14T23:22:36.392Z,7.90
2022-12-14T23:25:27.616Z,6.97
2022-12-14T23:28:18.360Z,5.75
2022-12-14T23:31:09.391Z,7.82
2022-12-14T23:34:00.509Z,6.65
2022-12-14T23:36:51.050Z,7.03
2022-12-14T23:39:41.688Z,6.20
2022-12-14T23:42:32.272Z,5.57
2022-12-14T23:45:24.047Z,6.47
2022-12-14T23:48:15.102Z,3.10
2022-12-14T23:51:06.394Z,5.38
2022-12-14T23:53:56.886Z,5.18
2022-12-14T23:56:47.428Z,4.88
2022-12-14T23:59:37.863Z,5.70
